createdAt,value
2022-11-20T00:00:14.523Z,59.52
2022-11-20T00:03:18.832Z,59.10
2022-11-20T00:06:23.328Z,58.36
2022-11-20T00:09:26.606Z,58.03
2022-11-20T00:12:29.756Z,58.78
2022-11-20T00:15:33.218Z,58.45
2022-11-20T00:18:36.428Z,57.53
2022-11-20T00:21:39.654Z,57.46
2022-11-20T00:24:43.311Z,58.32
2022-11-20T00:27:46.793Z,58.10
2022-11-20T00:30:50.002Z,58.53
2022-11-20T00:33:53.954Z,58.67
2022-11-20T00:36:57.158Z,58.92
2022-11-20T00:40:00.437Z,59.32
2022-11-20T00:43:03.620Z,58.48
2022-11-20T00:46:10.515Z,58.08
2022-11-20T00:49:13.802Z,58.27
2022-11-20T00:52:17.044Z,58.18
2022-11-20T00:55:20.355Z,58.18
2022-11-20T00:58:25.139Z,58.64
2022-11-20T01:01:30.747Z,58.33
2022-11-20T01:04:34.141Z,57.69
2022-11-20T01:07:37.478Z,57.57
2022-11-20T01:10:40.716Z,56.87
2022-11-20T01:13:45.110Z,56.83
2022-11-20T01:16:51.783Z,57.64
2022-11-20T01:19:54.968Z,57.20
2022-11-20T01:22:58.289Z,57.24
2022-11-20T01:26:06.001Z,56.80
2022-11-20T01:29:14.562Z,57.19
2022-11-20T01:32:17.945Z,56.24
2022-11-20T01:35:22.118Z,56.48
2022-11-20T01:38:25.567Z,56.00
2022-11-20T01:41:51.638Z,55.52
2022-11-20T01:45:02.742Z,55.63
2022-11-20T01:48:06.255Z,56.04
2022-11-20T01:51:18.882Z,56.09
2022-11-20T01:54:39.188Z,56.42
2022-11-20T01:58:47.207Z,56.48
2022-11-20T02:02:16.631Z,56.39
2022-11-20T02:05:33.011Z,56.11
2022-11-20T02:08:56.662Z,56.02
2022-11-20T02:12:01.057Z,55.84
2022-11-20T02:15:04.601Z,55.68
2022-11-20T02:18:39.771Z,55.70
2022-11-20T02:22:09.853Z,55.89
2022-11-20T02:25:14.106Z,55.91
2022-11-20T02:28:19.486Z,55.68
2022-11-20T02:31:23.666Z,56.03
2022-11-20T02:34:27.536Z,56.04
2022-11-20T02:37:35.084Z,55.86
2022-11-20T02:40:38.559Z,55.56
2022-11-20T02:44:49.960Z,55.48
2022-11-20T02:47:54.526Z,55.32
2022-11-20T02:51:26.886Z,55.28
2022-11-20T02:54:42.422Z,55.45
2022-11-20T02:57:46.066Z,55.33
2022-11-20T03:01:04.075Z,54.92
2022-11-20T03:04:07.593Z,54.96
2022-11-20T03:07:11.421Z,55.13
2022-11-20T03:10:18.023Z,55.02
2022-11-20T03:14:25.623Z,54.84
2022-11-20T03:22:17.802Z,53.93
2022-11-20T03:25:49.393Z,54.20
2022-11-20T03:28:58.092Z,53.94
2022-11-20T03:32:01.514Z,53.51
2022-11-20T03:35:05.032Z,52.73
2022-11-20T03:38:08.208Z,52.20
2022-11-20T03:59:23.278Z,51.61
2022-11-20T04:02:30.098Z,50.96
2022-11-20T04:06:03.372Z,50.73
2022-11-20T04:09:07.846Z,50.05
2022-11-20T04:12:11.130Z,49.78
2022-11-20T04:15:14.395Z,49.84
2022-11-20T04:18:22.362Z,49.85
2022-11-20T04:21:26.645Z,49.23
2022-11-20T04:24:30.692Z,49.96
2022-11-20T04:28:18.644Z,48.76
2022-11-20T04:35:49.311Z,48.38
2022-11-20T04:39:02.208Z,47.77
2022-11-20T04:42:29.537Z,48.12
2022-11-20T04:45:39.440Z,47.58
2022-11-20T04:48:43.189Z,47.58
2022-11-20T04:51:49.393Z,47.00
2022-11-20T04:55:04.955Z,47.65
2022-11-20T04:58:11.764Z,47.38
2022-11-20T05:02:22.743Z,47.59
2022-11-20T05:06:38.930Z,47.45
2022-11-20T05:09:42.579Z,47.91
2022-11-20T05:12:46.166Z,48.01
2022-11-20T05:16:19.983Z,47.47
2022-11-20T05:19:26.970Z,46.96
2022-11-20T05:22:30.391Z,47.19
2022-11-20T05:45:24.171Z,46.56
2022-11-20T05:49:04.313Z,46.90
2022-11-20T05:56:13.676Z,46.05
2022-11-20T05:59:17.231Z,45.86
2022-11-20T06:02:38.602Z,45.71
2022-11-20T06:05:47.277Z,45.43
2022-11-20T06:08:56.145Z,45.50
2022-11-20T06:12:05.010Z,45.35
2022-11-20T06:15:13.250Z,44.25
2022-11-20T06:18:21.422Z,44.30
2022-11-20T06:21:25.705Z,43.42
2022-11-20T06:24:29.131Z,43.13
2022-11-20T06:27:32.900Z,43.48
2022-11-20T06:30:54.571Z,43.98
2022-11-20T06:33:58.376Z,43.31
2022-11-20T06:37:30.896Z,42.80
2022-11-20T06:40:44.428Z,43.67
2022-11-20T06:43:59.721Z,42.42
2022-11-20T06:47:51.239Z,41.00
2022-11-20T06:50:59.174Z,39.49
2022-11-20T06:54:30.707Z,38.77
2022-11-20T06:57:44.564Z,38.09
2022-11-20T07:01:02.895Z,38.55
2022-11-20T07:04:25.888Z,39.21
2022-11-20T07:07:32.677Z,39.25
2022-11-20T07:10:40.335Z,39.14
2022-11-20T07:13:52.974Z,39.15
2022-11-20T07:17:14.915Z,39.12
2022-11-20T07:20:27.692Z,38.12
2022-11-20T07:23:41.589Z,37.34
2022-11-20T07:26:55.121Z,38.17
2022-11-20T07:30:21.886Z,38.64
2022-11-20T07:33:34.851Z,38.27
2022-11-20T07:36:51.861Z,38.60
2022-11-20T07:39:59.421Z,38.48
2022-11-20T07:43:35.932Z,37.69
2022-11-20T07:47:02.003Z,38.35
2022-11-20T07:50:20.075Z,37.04
2022-11-20T07:53:27.096Z,36.52
2022-11-20T07:56:59.298Z,36.23
2022-11-20T08:00:25.736Z,37.80
2022-11-20T08:07:57.092Z,36.41
2022-11-20T08:11:21.782Z,35.83
2022-11-20T08:14:25.033Z,37.56
2022-11-20T08:17:33.562Z,39.08
2022-11-20T08:20:40.592Z,40.13
2022-11-20T08:23:47.065Z,40.23
2022-11-20T08:26:50.653Z,41.12
2022-11-20T08:38:27.745Z,41.39
2022-11-20T08:41:34.493Z,41.65
2022-11-20T08:44:37.591Z,41.50
2022-11-20T08:53:05.382Z,43.94
2022-11-20T08:56:56.568Z,45.62
2022-11-20T09:00:25.075Z,47.01
2022-11-20T09:13:39.260Z,49.53
2022-11-20T09:16:42.747Z,49.97
2022-11-20T09:19:46.573Z,49.94
2022-11-20T09:22:59.678Z,50.41
2022-11-20T09:26:07.964Z,50.56
2022-11-20T09:29:11.083Z,50.81
2022-11-20T09:32:14.237Z,50.78
2022-11-20T09:35:17.658Z,50.96
2022-11-20T09:38:20.861Z,49.95
2022-11-20T09:41:45.245Z,50.14
2022-11-20T09:45:06.914Z,50.10
2022-11-20T09:53:36.742Z,50.49
2022-11-20T09:56:43.663Z,50.87
2022-11-20T10:01:03.046Z,51.20
2022-11-20T10:04:15.515Z,50.87
2022-11-20T10:07:50.587Z,51.65
2022-11-20T10:11:08.299Z,51.16
2022-11-20T10:14:58.146Z,50.94
2022-11-20T10:28:16.830Z,51.00
2022-11-20T10:41:21.357Z,51.32
2022-11-20T10:44:52.324Z,51.71
2022-11-20T10:48:19.129Z,52.13
2022-11-20T10:51:37.553Z,51.61
2022-11-20T10:54:50.603Z,51.83
2022-11-20T10:58:04.096Z,51.93
2022-11-20T11:01:18.434Z,51.93
2022-11-20T11:04:51.588Z,52.38
2022-11-20T11:08:03.283Z,52.53
2022-11-20T11:11:29.510Z,52.72
2022-11-20T11:14:55.016Z,53.58
2022-11-20T11:17:59.888Z,53.70
2022-11-20T11:21:05.914Z,54.32
2022-11-20T11:24:42.273Z,54.08
2022-11-20T11:28:04.988Z,54.93
2022-11-20T11:31:08.898Z,54.27
2022-11-20T11:34:20.255Z,54.46
2022-11-20T11:37:26.903Z,54.75
2022-11-20T11:40:41.840Z,55.00
2022-11-20T11:44:36.603Z,55.18
2022-11-20T11:47:44.335Z,55.82
2022-11-20T11:50:53.533Z,56.11
2022-11-20T11:53:58.601Z,56.25
2022-11-20T11:57:07.096Z,56.47
2022-11-20T12:00:14.801Z,56.77
2022-11-20T12:03:32.589Z,57.01
2022-11-20T12:06:39.708Z,56.54
2022-11-20T12:09:49.829Z,55.87
2022-11-20T12:13:05.918Z,55.63
2022-11-20T12:16:15.651Z,55.38
2022-11-20T12:19:18.969Z,55.70
2022-11-20T12:22:41.561Z,55.55
2022-11-20T12:25:48.770Z,55.82
2022-11-20T12:29:14.296Z,55.86
2022-11-20T12:32:35.859Z,56.04
2022-11-20T12:35:57.134Z,56.00
2022-11-20T12:39:06.109Z,56.16
2022-11-20T12:42:47.750Z,56.34
2022-11-20T12:46:07.521Z,56.86
2022-11-20T12:49:22.241Z,57.36
2022-11-20T12:52:53.449Z,57.47
2022-11-20T12:56:02.062Z,56.71
2022-11-20T12:59:04.900Z,56.42
2022-11-20T13:02:14.277Z,56.38
2022-11-20T13:05:22.398Z,56.30
2022-11-20T13:08:29.516Z,56.06
2022-11-20T13:11:32.734Z,56.28
2022-11-20T13:14:39.674Z,55.97
2022-11-20T13:17:50.509Z,56.37
2022-11-20T13:20:53.674Z,56.35
2022-11-20T13:24:10.451Z,56.35
2022-11-20T13:27:13.485Z,56.70
2022-11-20T13:30:19.997Z,56.85
2022-11-20T13:33:46.546Z,56.98
2022-11-20T13:36:54.847Z,56.43
2022-11-20T13:40:09.811Z,56.16
2022-11-20T13:43:34.580Z,56.20
2022-11-20T13:46:45.003Z,55.92
2022-11-20T13:49:49.763Z,55.89
2022-11-20T13:53:24.224Z,55.82
2022-11-20T13:56:39.279Z,55.64
2022-11-20T13:59:58.835Z,55.29
2022-11-20T14:03:08.129Z,55.15
2022-11-20T14:06:21.785Z,55.44
2022-11-20T14:09:33.613Z,55.58
2022-11-20T14:12:38.442Z,55.80
2022-11-20T14:15:45.125Z,56.15
2022-11-20T14:18:48.533Z,56.38
2022-11-20T14:21:55.222Z,56.61
2022-11-20T14:25:09.565Z,56.96
2022-11-20T14:28:20.670Z,55.37
2022-11-20T14:31:27.900Z,54.75
2022-11-20T14:34:34.362Z,55.39
2022-11-20T14:37:40.740Z,55.63
2022-11-20T14:40:43.976Z,56.61
2022-11-20T14:43:54.768Z,56.83
2022-11-20T14:46:58.721Z,57.36
2022-11-20T14:50:07.417Z,56.70
2022-11-20T14:53:24.620Z,55.73
2022-11-20T14:56:27.717Z,55.92
2022-11-20T14:59:35.990Z,55.61
2022-11-20T15:02:47.792Z,55.68
2022-11-20T15:05:51.977Z,55.82
2022-11-20T15:08:55.796Z,56.26
2022-11-20T15:12:05.809Z,55.84
2022-11-20T15:15:14.023Z,55.90
2022-11-20T15:18:32.396Z,56.38
2022-11-20T15:21:35.606Z,56.18
2022-11-20T15:24:38.712Z,56.80
2022-11-20T15:27:42.085Z,55.98
2022-11-20T15:30:47.174Z,56.11
2022-11-20T15:33:51.281Z,55.83
2022-11-20T15:36:54.820Z,55.97
2022-11-20T15:39:57.897Z,56.13
2022-11-20T15:43:13.731Z,55.19
2022-11-20T15:46:22.660Z,54.79
2022-11-20T15:49:27.054Z,54.74
2022-11-20T15:52:40.238Z,55.62
2022-11-20T15:55:44.569Z,55.96
2022-11-20T15:58:47.810Z,56.46
2022-11-20T16:01:51.210Z,57.02
2022-11-20T16:04:54.342Z,56.27
2022-11-20T16:07:57.874Z,55.77
2022-11-20T16:11:00.979Z,55.47
2022-11-20T16:14:25.880Z,56.16
2022-11-20T16:17:44.007Z,56.83
2022-11-20T16:20:49.408Z,58.03
2022-11-20T16:23:58.588Z,58.45
2022-11-20T16:27:01.713Z,60.41
2022-11-20T16:30:05.239Z,60.54
2022-11-20T16:33:16.319Z,60.43
2022-11-20T16:36:22.728Z,59.67
2022-11-20T16:39:29.895Z,58.69
2022-11-20T16:42:36.883Z,58.14
2022-11-20T16:45:45.467Z,58.31
2022-11-20T16:48:59.391Z,58.08
2022-11-20T16:52:02.534Z,57.20
2022-11-20T16:55:06.029Z,56.43
2022-11-20T16:58:09.929Z,57.41
2022-11-20T17:01:16.483Z,57.42
2022-11-20T17:04:19.577Z,57.21
2022-11-20T17:07:22.819Z,57.33
2022-11-20T17:10:26.111Z,57.40
2022-11-20T17:13:33.925Z,58.05
2022-11-20T17:16:39.600Z,57.68
2022-11-20T17:19:42.662Z,57.20
2022-11-20T17:22:46.407Z,57.38
2022-11-20T17:25:49.966Z,57.97
2022-11-20T17:28:59.237Z,58.71
2022-11-20T17:32:02.392Z,55.86
2022-11-20T17:35:05.852Z,56.05
2022-11-20T17:38:08.947Z,56.72
2022-11-20T17:41:13.281Z,56.44
2022-11-20T17:44:16.376Z,56.48
2022-11-20T17:47:19.493Z,56.72
2022-11-20T17:50:22.849Z,56.50
2022-11-20T17:53:25.913Z,56.50
2022-11-20T17:56:51.828Z,56.78
2022-11-20T17:59:55.017Z,56.83
2022-11-20T18:02:58.417Z,56.52
2022-11-20T18:06:11.038Z,57.24
2022-11-20T18:09:14.220Z,57.19
2022-11-20T18:12:17.312Z,57.54
2022-11-20T18:15:20.780Z,56.87
2022-11-20T18:18:23.963Z,57.56
2022-11-20T18:21:29.773Z,56.71
2022-11-20T18:24:33.861Z,57.21
2022-11-20T18:27:37.088Z,57.37
2022-11-20T18:30:40.159Z,57.41
2022-11-20T18:33:43.424Z,57.32
2022-11-20T18:36:46.770Z,57.40
2022-11-20T18:39:50.946Z,57.50
2022-11-20T18:43:17.071Z,58.12
2022-11-20T18:46:22.527Z,57.91
2022-11-20T18:49:25.761Z,58.64
2022-11-20T18:52:34.676Z,59.09
2022-11-20T18:55:37.489Z,59.52
2022-11-20T18:58:41.759Z,59.51
2022-11-20T19:01:45.139Z,58.83
2022-11-20T19:04:48.774Z,59.27
2022-11-20T19:07:51.959Z,57.79
2022-11-20T19:10:54.988Z,57.52
2022-11-20T19:13:59.018Z,57.19
2022-11-20T19:17:02.420Z,55.99
2022-11-20T19:20:06.084Z,55.53
2022-11-20T19:23:09.236Z,55.46
2022-11-20T19:26:12.217Z,55.51
2022-11-20T19:29:16.908Z,55.72
2022-11-20T19:32:21.435Z,55.80
2022-11-20T19:35:25.831Z,55.74
2022-11-20T19:38:28.923Z,55.51
2022-11-20T19:41:33.473Z,55.75
2022-11-20T19:44:36.859Z,55.99
2022-11-20T19:48:09.033Z,55.76
2022-11-20T19:51:17.829Z,55.90
2022-11-20T19:54:20.944Z,56.37
2022-11-20T19:57:24.044Z,56.20
2022-11-20T20:00:32.283Z,57.11
2022-11-20T20:03:35.771Z,56.93
2022-11-20T20:06:40.510Z,57.53
2022-11-20T20:09:43.535Z,57.58
2022-11-20T20:12:46.725Z,57.76
2022-11-20T20:15:49.883Z,58.33
2022-11-20T20:18:58.318Z,58.54
2022-11-20T20:22:02.434Z,58.52
2022-11-20T20:25:07.133Z,58.52
2022-11-20T20:28:10.255Z,58.51
2022-11-20T20:31:15.549Z,59.03
2022-11-20T20:34:18.706Z,59.03
2022-11-20T20:37:23.219Z,59.28
2022-11-20T20:40:26.359Z,57.44
2022-11-20T20:43:29.970Z,56.50
2022-11-20T20:46:33.389Z,56.34
2022-11-20T20:49:36.554Z,55.94
2022-11-20T20:52:39.883Z,56.15
2022-11-20T20:55:42.993Z,55.91
2022-11-20T20:58:46.398Z,56.98
2022-11-20T21:01:50.944Z,56.82
2022-11-20T21:04:54.121Z,57.10
2022-11-20T21:08:15.544Z,57.07
2022-11-20T21:11:20.548Z,57.16
2022-11-20T21:14:23.910Z,57.26
2022-11-20T21:17:27.966Z,57.00
2022-11-20T21:20:49.594Z,56.98
2022-11-20T21:23:54.020Z,56.88
2022-11-20T21:26:58.465Z,57.03
2022-11-20T21:30:01.588Z,56.89
2022-11-20T21:33:04.794Z,57.35
2022-11-20T21:36:09.256Z,57.64
2022-11-20T21:39:13.056Z,57.60
2022-11-20T21:42:16.284Z,57.30
2022-11-20T21:45:19.403Z,58.04
2022-11-20T21:48:22.508Z,57.71
2022-11-20T21:51:28.584Z,57.26
2022-11-20T21:54:32.161Z,55.87
2022-11-20T21:57:35.566Z,56.18
2022-11-20T22:00:38.684Z,56.48
2022-11-20T22:03:42.467Z,56.61
2022-11-20T22:06:45.938Z,56.72
2022-11-20T22:09:49.776Z,56.72
2022-11-20T22:13:14.580Z,56.74
2022-11-20T22:16:18.255Z,57.07
2022-11-20T22:19:22.927Z,57.00
2022-11-20T22:22:25.964Z,57.08
2022-11-20T22:25:29.058Z,57.40
2022-11-20T22:28:32.943Z,56.88
2022-11-20T22:31:36.029Z,57.06
2022-11-20T22:34:39.151Z,57.87
2022-11-20T22:37:42.310Z,57.27
2022-11-20T22:40:47.296Z,56.29
2022-11-20T22:43:58.382Z,56.38
2022-11-20T22:47:01.765Z,56.84
2022-11-20T22:50:05.137Z,57.80
2022-11-20T22:53:08.398Z,58.42
2022-11-20T22:56:16.065Z,57.82
2022-11-20T22:59:19.327Z,57.46
2022-11-20T23:02:22.477Z,57.69
2022-11-20T23:05:25.647Z,57.34
2022-11-20T23:08:29.297Z,57.60
2022-11-20T23:11:33.087Z,57.40
2022-11-20T23:14:36.274Z,57.65
2022-11-20T23:17:39.397Z,58.73
2022-11-20T23:20:42.547Z,57.91
2022-11-20T23:23:50.036Z,58.51
2022-11-20T23:26:53.342Z,57.42
2022-11-20T23:29:59.586Z,57.14
2022-11-20T23:33:02.861Z,55.95
2022-11-20T23:36:06.925Z,56.22
2022-11-20T23:39:10.636Z,56.84
2022-11-20T23:42:14.537Z,57.49
2022-11-20T23:45:17.675Z,57.76
2022-11-20T23:48:22.579Z,58.34
2022-11-20T23:51:25.686Z,57.28
2022-11-20T23:54:29.116Z,56.55
2022-11-20T23:57:32.310Z,57.02
